sensor_id;sensor_type;location;lat;lon;timestamp;P1;durP1;ratioP1;P2;durP2;ratioP2
12758;SDS011;20944;47.048;15.390;2023-05-07T00:01:40;5.07;;;2.75;;
12758;SDS011;20944;47.048;15.390;2023-05-07T00:04:09;2.05;;;1.83;;
12758;SDS011;20944;47.048;15.390;2023-05-07T00:06:37;2.05;;;1.92;;
12758;SDS011;20944;47.048;15.390;2023-05-07T00:09:06;2.77;;;2.00;;
12758;SDS011;20944;47.048;15.390;2023-05-07T00:11:34;5.23;;;2.60;;
12758;SDS011;20944;47.048;15.390;2023-05-07T00:14:02;2.77;;;2.27;;
12758;SDS011;20944;47.048;15.390;2023-05-07T00:16:31;3.20;;;1.83;;
12758;SDS011;20944;47.048;15.390;2023-05-07T00:19:00;2.43;;;2.23;;
12758;SDS011;20944;47.048;15.390;2023-05-07T00:21:28;2.40;;;2.00;;
12758;SDS011;20944;47.048;15.390;2023-05-07T00:23:57;2.40;;;1.90;;
12758;SDS011;20944;47.048;15.390;2023-05-07T00:26:25;4.43;;;2.57;;
12758;SDS011;20944;47.048;15.390;2023-05-07T00:28:53;4.77;;;2.20;;
12758;SDS011;20944;47.048;15.390;2023-05-07T00:31:21;2.63;;;1.90;;
12758;SDS011;20944;47.048;15.390;2023-05-07T00:33:49;3.00;;;2.00;;
12758;SDS011;20944;47.048;15.390;2023-05-07T00:36:19;2.90;;;2.20;;
12758;SDS011;20944;47.048;15.390;2023-05-07T00:38:47;2.43;;;2.13;;
12758;SDS011;20944;47.048;15.390;2023-05-07T00:41:15;3.20;;;2.37;;
12758;SDS011;20944;47.048;15.390;2023-05-07T00:43:43;2.50;;;2.30;;
12758;SDS011;20944;47.048;15.390;2023-05-07T00:46:12;2.30;;;2.10;;
12758;SDS011;20944;47.048;15.390;2023-05-07T00:48:42;2.77;;;1.97;;
12758;SDS011;20944;47.048;15.390;2023-05-07T00:51:10;1.80;;;1.70;;
12758;SDS011;20944;47.048;15.390;2023-05-07T00:53:40;3.17;;;2.50;;
12758;SDS011;20944;47.048;15.390;2023-05-07T00:56:09;3.03;;;2.20;;
12758;SDS011;20944;47.048;15.390;2023-05-07T00:58:37;3.33;;;2.40;;
12758;SDS011;20944;47.048;15.390;2023-05-07T01:01:06;2.43;;;1.90;;
12758;SDS011;20944;47.048;15.390;2023-05-07T01:03:34;2.10;;;2.00;;
12758;SDS011;20944;47.048;15.390;2023-05-07T01:06:03;4.13;;;2.37;;
12758;SDS011;20944;47.048;15.390;2023-05-07T01:08:34;4.07;;;2.33;;
12758;SDS011;20944;47.048;15.390;2023-05-07T01:11:07;4.20;;;2.30;;
12758;SDS011;20944;47.048;15.390;2023-05-07T01:13:36;2.73;;;2.10;;
12758;SDS011;20944;47.048;15.390;2023-05-07T01:16:06;2.40;;;1.80;;
12758;SDS011;20944;47.048;15.390;2023-05-07T01:18:36;2.83;;;1.90;;
12758;SDS011;20944;47.048;15.390;2023-05-07T01:21:04;1.80;;;1.20;;
12758;SDS011;20944;47.048;15.390;2023-05-07T01:23:34;1.43;;;1.33;;
12758;SDS011;20944;47.048;15.390;2023-05-07T01:26:03;1.50;;;1.40;;
12758;SDS011;20944;47.048;15.390;2023-05-07T01:28:31;1.57;;;1.27;;
12758;SDS011;20944;47.048;15.390;2023-05-07T01:31:00;2.53;;;1.67;;
12758;SDS011;20944;47.048;15.390;2023-05-07T01:33:31;1.37;;;1.27;;
12758;SDS011;20944;47.048;15.390;2023-05-07T01:36:02;1.93;;;1.50;;
12758;SDS011;20944;47.048;15.390;2023-05-07T01:38:34;3.13;;;1.63;;
12758;SDS011;20944;47.048;15.390;2023-05-07T01:41:03;1.33;;;1.27;;
12758;SDS011;20944;47.048;15.390;2023-05-07T01:43:32;2.67;;;1.40;;
12758;SDS011;20944;47.048;15.390;2023-05-07T01:46:01;1.50;;;1.10;;
12758;SDS011;20944;47.048;15.390;2023-05-07T01:48:31;1.63;;;1.20;;
12758;SDS011;20944;47.048;15.390;2023-05-07T01:51:00;1.60;;;1.20;;
12758;SDS011;20944;47.048;15.390;2023-05-07T01:53:30;1.30;;;1.20;;
12758;SDS011;20944;47.048;15.390;2023-05-07T01:56:05;1.77;;;1.13;;
12758;SDS011;20944;47.048;15.390;2023-05-07T01:58:34;1.47;;;1.00;;
12758;SDS011;20944;47.048;15.390;2023-05-07T02:01:02;0.90;;;0.90;;
12758;SDS011;20944;47.048;15.390;2023-05-07T02:03:30;1.20;;;0.90;;
12758;SDS011;20944;47.048;15.390;2023-05-07T02:05:58;2.00;;;0.73;;
12758;SDS011;20944;47.048;15.390;2023-05-07T02:08:26;0.80;;;0.80;;
12758;SDS011;20944;47.048;15.390;2023-05-07T02:10:56;1.33;;;0.73;;
12758;SDS011;20944;47.048;15.390;2023-05-07T02:13:25;2.30;;;1.00;;
12758;SDS011;20944;47.048;15.390;2023-05-07T02:15:54;1.47;;;1.00;;
12758;SDS011;20944;47.048;15.390;2023-05-07T02:18:22;1.47;;;1.00;;
12758;SDS011;20944;47.048;15.390;2023-05-07T02:20:51;1.07;;;0.97;;
12758;SDS011;20944;47.048;15.390;2023-05-07T02:23:19;1.23;;;0.90;;
12758;SDS011;20944;47.048;15.390;2023-05-07T02:25:47;1.47;;;0.97;;
12758;SDS011;20944;47.048;15.390;2023-05-07T02:28:16;2.30;;;0.97;;
12758;SDS011;20944;47.048;15.390;2023-05-07T02:30:45;2.33;;;1.10;;
12758;SDS011;20944;47.048;15.390;2023-05-07T02:33:13;2.47;;;1.17;;
12758;SDS011;20944;47.048;15.390;2023-05-07T02:35:41;1.47;;;1.37;;
12758;SDS011;20944;47.048;15.390;2023-05-07T02:38:09;1.17;;;0.93;;
12758;SDS011;20944;47.048;15.390;2023-05-07T02:40:37;1.33;;;1.23;;
12758;SDS011;20944;47.048;15.390;2023-05-07T02:43:06;1.30;;;1.10;;
12758;SDS011;20944;47.048;15.390;2023-05-07T02:45:36;2.30;;;1.00;;
12758;SDS011;20944;47.048;15.390;2023-05-07T02:48:05;1.03;;;0.80;;
12758;SDS011;20944;47.048;15.390;2023-05-07T02:50:33;1.20;;;0.90;;
12758;SDS011;20944;47.048;15.390;2023-05-07T02:53:01;1.03;;;0.83;;
12758;SDS011;20944;47.048;15.390;2023-05-07T02:55:30;0.83;;;0.80;;
12758;SDS011;20944;47.048;15.390;2023-05-07T02:57:58;1.50;;;1.13;;
12758;SDS011;20944;47.048;15.390;2023-05-07T03:00:26;1.27;;;1.10;;
12758;SDS011;20944;47.048;15.390;2023-05-07T03:02:55;2.03;;;1.23;;
12758;SDS011;20944;47.048;15.390;2023-05-07T03:05:24;1.80;;;1.10;;
12758;SDS011;20944;47.048;15.390;2023-05-07T03:07:52;1.27;;;0.90;;
12758;SDS011;20944;47.048;15.390;2023-05-07T03:10:20;1.17;;;0.83;;
12758;SDS011;20944;47.048;15.390;2023-05-07T03:12:48;1.30;;;1.13;;
12758;SDS011;20944;47.048;15.390;2023-05-07T03:15:17;1.90;;;0.93;;
12758;SDS011;20944;47.048;15.390;2023-05-07T03:17:45;1.13;;;0.90;;
12758;SDS011;20944;47.048;15.390;2023-05-07T03:20:15;1.70;;;0.93;;
12758;SDS011;20944;47.048;15.390;2023-05-07T03:22:43;1.27;;;1.13;;
12758;SDS011;20944;47.048;15.390;2023-05-07T03:25:11;1.43;;;1.10;;
12758;SDS011;20944;47.048;15.390;2023-05-07T03:27:40;1.17;;;1.07;;
12758;SDS011;20944;47.048;15.390;2023-05-07T03:30:09;1.73;;;1.23;;
12758;SDS011;20944;47.048;15.390;2023-05-07T03:32:39;2.30;;;1.07;;
12758;SDS011;20944;47.048;15.390;2023-05-07T03:35:07;1.10;;;0.93;;
12758;SDS011;20944;47.048;15.390;2023-05-07T03:37:37;1.10;;;1.00;;
12758;SDS011;20944;47.048;15.390;2023-05-07T03:40:06;2.00;;;1.03;;
12758;SDS011;20944;47.048;15.390;2023-05-07T03:42:37;1.70;;;1.20;;
12758;SDS011;20944;47.048;15.390;2023-05-07T03:45:06;1.73;;;1.30;;
12758;SDS011;20944;47.048;15.390;2023-05-07T03:47:35;1.33;;;1.10;;
12758;SDS011;20944;47.048;15.390;2023-05-07T03:50:03;2.30;;;1.00;;
12758;SDS011;20944;47.048;15.390;2023-05-07T03:52:32;1.13;;;0.73;;
12758;SDS011;20944;47.048;15.390;2023-05-07T03:55:02;1.43;;;1.33;;
12758;SDS011;20944;47.048;15.390;2023-05-07T03:57:30;1.77;;;1.23;;
12758;SDS011;20944;47.048;15.390;2023-05-07T03:59:58;1.63;;;1.13;;
12758;SDS011;20944;47.048;15.390;2023-05-07T04:02:26;1.30;;;1.20;;
12758;SDS011;20944;47.048;15.390;2023-05-07T04:04:55;1.23;;;1.13;;
12758;SDS011;20944;47.048;15.390;2023-05-07T04:07:23;1.67;;;0.90;;
12758;SDS011;20944;47.048;15.390;2023-05-07T04:09:51;2.47;;;0.97;;
12758;SDS011;20944;47.048;15.390;2023-05-07T04:12:21;1.10;;;1.00;;
12758;SDS011;20944;47.048;15.390;2023-05-07T04:14:49;1.57;;;1.07;;
12758;SDS011;20944;47.048;15.390;2023-05-07T04:17:17;0.90;;;0.90;;
12758;SDS011;20944;47.048;15.390;2023-05-07T04:19:45;1.00;;;0.90;;
12758;SDS011;20944;47.048;15.390;2023-05-07T04:22:13;1.07;;;0.97;;
12758;SDS011;20944;47.048;15.390;2023-05-07T04:24:42;1.17;;;1.07;;
12758;SDS011;20944;47.048;15.390;2023-05-07T04:27:10;1.27;;;1.00;;
12758;SDS011;20944;47.048;15.390;2023-05-07T04:29:39;1.33;;;1.07;;
12758;SDS011;20944;47.048;15.390;2023-05-07T04:32:08;1.27;;;1.13;;
12758;SDS011;20944;47.048;15.390;2023-05-07T04:34:37;1.43;;;1.33;;
12758;SDS011;20944;47.048;15.390;2023-05-07T04:37:05;1.63;;;1.30;;
12758;SDS011;20944;47.048;15.390;2023-05-07T04:39:33;1.40;;;1.30;;
12758;SDS011;20944;47.048;15.390;2023-05-07T04:42:02;1.43;;;1.33;;
12758;SDS011;20944;47.048;15.390;2023-05-07T04:44:30;2.23;;;1.30;;
12758;SDS011;20944;47.048;15.390;2023-05-07T04:47:00;1.13;;;1.10;;
12758;SDS011;20944;47.048;15.390;2023-05-07T04:49:28;2.33;;;1.20;;
12758;SDS011;20944;47.048;15.390;2023-05-07T04:51:56;2.07;;;1.10;;
12758;SDS011;20944;47.048;15.390;2023-05-07T04:54:24;1.60;;;1.50;;
12758;SDS011;20944;47.048;15.390;2023-05-07T04:56:53;1.53;;;1.43;;
12758;SDS011;20944;47.048;15.390;2023-05-07T04:59:21;2.73;;;2.27;;
12758;SDS011;20944;47.048;15.390;2023-05-07T05:01:49;4.93;;;1.87;;
12758;SDS011;20944;47.048;15.390;2023-05-07T05:04:19;3.77;;;2.07;;
12758;SDS011;20944;47.048;15.390;2023-05-07T05:06:47;5.00;;;1.97;;
12758;SDS011;20944;47.048;15.390;2023-05-07T05:09:15;3.43;;;1.90;;
12758;SDS011;20944;47.048;15.390;2023-05-07T05:11:44;5.57;;;2.10;;
12758;SDS011;20944;47.048;15.390;2023-05-07T05:14:12;3.07;;;2.10;;
12758;SDS011;20944;47.048;15.390;2023-05-07T05:16:40;2.60;;;2.23;;
12758;SDS011;20944;47.048;15.390;2023-05-07T05:19:09;3.07;;;2.03;;
12758;SDS011;20944;47.048;15.390;2023-05-07T05:21:38;3.87;;;2.60;;
12758;SDS011;20944;47.048;15.390;2023-05-07T05:24:07;2.90;;;2.50;;
12758;SDS011;20944;47.048;15.390;2023-05-07T05:26:35;2.87;;;2.60;;
12758;SDS011;20944;47.048;15.390;2023-05-07T05:29:03;2.63;;;2.33;;
12758;SDS011;20944;47.048;15.390;2023-05-07T05:31:32;3.08;;;2.58;;
12758;SDS011;20944;47.048;15.390;2023-05-07T05:34:01;2.50;;;2.30;;
12758;SDS011;20944;47.048;15.390;2023-05-07T05:36:30;2.57;;;2.30;;
12758;SDS011;20944;47.048;15.390;2023-05-07T05:38:59;2.43;;;2.17;;
12758;SDS011;20944;47.048;15.390;2023-05-07T05:41:27;1.83;;;1.70;;
12758;SDS011;20944;47.048;15.390;2023-05-07T05:43:56;2.65;;;2.13;;
12758;SDS011;20944;47.048;15.390;2023-05-07T05:46:24;3.00;;;2.50;;
12758;SDS011;20944;47.048;15.390;2023-05-07T05:48:52;2.30;;;2.10;;
12758;SDS011;20944;47.048;15.390;2023-05-07T05:51:20;3.03;;;2.53;;
12758;SDS011;20944;47.048;15.390;2023-05-07T05:53:49;3.93;;;2.93;;
12758;SDS011;20944;47.048;15.390;2023-05-07T05:56:19;2.58;;;2.38;;
12758;SDS011;20944;47.048;15.390;2023-05-07T05:58:47;3.72;;;2.55;;
12758;SDS011;20944;47.048;15.390;2023-05-07T06:01:16;4.00;;;3.15;;
12758;SDS011;20944;47.048;15.390;2023-05-07T06:03:45;2.67;;;2.47;;
12758;SDS011;20944;47.048;15.390;2023-05-07T06:06:13;2.58;;;2.38;;
12758;SDS011;20944;47.048;15.390;2023-05-07T06:08:42;2.60;;;2.25;;
12758;SDS011;20944;47.048;15.390;2023-05-07T06:11:10;3.42;;;1.75;;
12758;SDS011;20944;47.048;15.390;2023-05-07T06:13:39;2.55;;;2.03;;
12758;SDS011;20944;47.048;15.390;2023-05-07T06:16:08;2.22;;;1.95;;
12758;SDS011;20944;47.048;15.390;2023-05-07T06:18:36;2.20;;;2.05;;
12758;SDS011;20944;47.048;15.390;2023-05-07T06:21:04;2.13;;;2.00;;
12758;SDS011;20944;47.048;15.390;2023-05-07T06:23:32;2.75;;;1.42;;
12758;SDS011;20944;47.048;15.390;2023-05-07T06:26:01;2.95;;;2.08;;
12758;SDS011;20944;47.048;15.390;2023-05-07T06:28:29;2.40;;;2.20;;
12758;SDS011;20944;47.048;15.390;2023-05-07T06:31:14;1.67;;;1.58;;
12758;SDS011;20944;47.048;15.390;2023-05-07T06:33:43;2.15;;;1.70;;
12758;SDS011;20944;47.048;15.390;2023-05-07T06:36:12;1.27;;;1.17;;
12758;SDS011;20944;47.048;15.390;2023-05-07T06:38:40;1.48;;;0.93;;
12758;SDS011;20944;47.048;15.390;2023-05-07T06:41:09;1.13;;;0.68;;
12758;SDS011;20944;47.048;15.390;2023-05-07T06:43:37;1.40;;;1.20;;
12758;SDS011;20944;47.048;15.390;2023-05-07T06:46:05;2.35;;;1.20;;
12758;SDS011;20944;47.048;15.390;2023-05-07T06:48:35;0.90;;;0.90;;
12758;SDS011;20944;47.048;15.390;2023-05-07T06:51:03;1.13;;;1.00;;
12758;SDS011;20944;47.048;15.390;2023-05-07T06:53:32;0.70;;;0.70;;
12758;SDS011;20944;47.048;15.390;2023-05-07T06:56:01;1.70;;;1.10;;
12758;SDS011;20944;47.048;15.390;2023-05-07T06:58:29;0.80;;;0.80;;
12758;SDS011;20944;47.048;15.390;2023-05-07T07:00:57;1.02;;;0.90;;
12758;SDS011;20944;47.048;15.390;2023-05-07T07:03:26;0.70;;;0.70;;
12758;SDS011;20944;47.048;15.390;2023-05-07T07:05:57;1.35;;;0.90;;
12758;SDS011;20944;47.048;15.390;2023-05-07T07:08:25;0.80;;;0.80;;
12758;SDS011;20944;47.048;15.390;2023-05-07T07:10:53;1.00;;;1.00;;
12758;SDS011;20944;47.048;15.390;2023-05-07T07:13:22;0.80;;;0.80;;
12758;SDS011;20944;47.048;15.390;2023-05-07T07:15:51;1.17;;;1.08;;
12758;SDS011;20944;47.048;15.390;2023-05-07T07:18:19;1.90;;;1.30;;
12758;SDS011;20944;47.048;15.390;2023-05-07T07:20:48;0.70;;;0.70;;
12758;SDS011;20944;47.048;15.390;2023-05-07T07:23:18;0.90;;;0.90;;
12758;SDS011;20944;47.048;15.390;2023-05-07T07:25:46;0.70;;;0.70;;
12758;SDS011;20944;47.048;15.390;2023-05-07T07:28:15;1.00;;;1.00;;
12758;SDS011;20944;47.048;15.390;2023-05-07T07:30:45;1.65;;;1.05;;
12758;SDS011;20944;47.048;15.390;2023-05-07T07:33:14;1.20;;;0.80;;
12758;SDS011;20944;47.048;15.390;2023-05-07T07:35:42;0.93;;;0.93;;
12758;SDS011;20944;47.048;15.390;2023-05-07T07:38:11;1.10;;;1.00;;
12758;SDS011;20944;47.048;15.390;2023-05-07T07:40:40;1.20;;;1.10;;
12758;SDS011;20944;47.048;15.390;2023-05-07T07:43:10;1.33;;;1.23;;
12758;SDS011;20944;47.048;15.390;2023-05-07T07:45:38;1.08;;;1.02;;
12758;SDS011;20944;47.048;15.390;2023-05-07T07:48:07;1.63;;;1.52;;
12758;SDS011;20944;47.048;15.390;2023-05-07T07:50:35;2.58;;;1.30;;
12758;SDS011;20944;47.048;15.390;2023-05-07T07:53:11;1.20;;;1.10;;
12758;SDS011;20944;47.048;15.390;2023-05-07T07:55:41;1.27;;;1.15;;
12758;SDS011;20944;47.048;15.390;2023-05-07T07:58:09;1.00;;;0.90;;
12758;SDS011;20944;47.048;15.390;2023-05-07T08:00:37;1.35;;;1.25;;
12758;SDS011;20944;47.048;15.390;2023-05-07T08:03:05;1.08;;;1.08;;
12758;SDS011;20944;47.048;15.390;2023-05-07T08:05:37;1.30;;;1.20;;
12758;SDS011;20944;47.048;15.390;2023-05-07T08:08:05;1.75;;;1.35;;
12758;SDS011;20944;47.048;15.390;2023-05-07T08:10:33;1.20;;;1.10;;
12758;SDS011;20944;47.048;15.390;2023-05-07T08:13:06;3.40;;;1.27;;
12758;SDS011;20944;47.048;15.390;2023-05-07T08:15:34;1.30;;;1.20;;
12758;SDS011;20944;47.048;15.390;2023-05-07T08:18:03;1.58;;;1.48;;
12758;SDS011;20944;47.048;15.390;2023-05-07T08:20:31;1.70;;;1.60;;
12758;SDS011;20944;47.048;15.390;2023-05-07T08:23:00;3.47;;;2.47;;
12758;SDS011;20944;47.048;15.390;2023-05-07T08:25:28;1.67;;;1.58;;
12758;SDS011;20944;47.048;15.390;2023-05-07T08:27:56;1.40;;;1.40;;
12758;SDS011;20944;47.048;15.390;2023-05-07T08:30:26;1.60;;;1.50;;
12758;SDS011;20944;47.048;15.390;2023-05-07T08:32:54;1.45;;;1.35;;
12758;SDS011;20944;47.048;15.390;2023-05-07T08:35:22;1.65;;;1.55;;
12758;SDS011;20944;47.048;15.390;2023-05-07T08:37:52;1.88;;;1.73;;
12758;SDS011;20944;47.048;15.390;2023-05-07T08:40:20;1.73;;;1.63;;
12758;SDS011;20944;47.048;15.390;2023-05-07T08:42:52;1.20;;;1.20;;
12758;SDS011;20944;47.048;15.390;2023-05-07T08:45:20;1.60;;;1.60;;
12758;SDS011;20944;47.048;15.390;2023-05-07T08:47:50;1.63;;;1.52;;
12758;SDS011;20944;47.048;15.390;2023-05-07T08:50:22;1.50;;;1.30;;
12758;SDS011;20944;47.048;15.390;2023-05-07T08:52:50;1.95;;;1.40;;
12758;SDS011;20944;47.048;15.390;2023-05-07T08:55:19;1.77;;;1.67;;
12758;SDS011;20944;47.048;15.390;2023-05-07T08:57:48;2.33;;;1.45;;
12758;SDS011;20944;47.048;15.390;2023-05-07T09:00:16;1.73;;;1.52;;
12758;SDS011;20944;47.048;15.390;2023-05-07T09:02:45;1.77;;;1.67;;
12758;SDS011;20944;47.048;15.390;2023-05-07T09:05:15;2.58;;;1.70;;
12758;SDS011;20944;47.048;15.390;2023-05-07T09:07:43;1.48;;;1.38;;
12758;SDS011;20944;47.048;15.390;2023-05-07T09:10:12;1.63;;;1.52;;
12758;SDS011;20944;47.048;15.390;2023-05-07T09:12:40;1.75;;;1.65;;
12758;SDS011;20944;47.048;15.390;2023-05-07T09:15:09;1.27;;;1.27;;
12758;SDS011;20944;47.048;15.390;2023-05-07T09:17:38;1.90;;;1.80;;
12758;SDS011;20944;47.048;15.390;2023-05-07T09:20:07;1.90;;;1.63;;
12758;SDS011;20944;47.048;15.390;2023-05-07T09:22:38;1.30;;;1.30;;
12758;SDS011;20944;47.048;15.390;2023-05-07T09:25:07;1.92;;;1.83;;
12758;SDS011;20944;47.048;15.390;2023-05-07T09:27:36;1.80;;;1.70;;
12758;SDS011;20944;47.048;15.390;2023-05-07T09:30:05;1.42;;;1.38;;
12758;SDS011;20944;47.048;15.390;2023-05-07T09:32:35;1.80;;;1.70;;
12758;SDS011;20944;47.048;15.390;2023-05-07T09:35:06;1.80;;;1.50;;
12758;SDS011;20944;47.048;15.390;2023-05-07T09:37:43;1.60;;;1.50;;
12758;SDS011;20944;47.048;15.390;2023-05-07T09:40:19;1.35;;;1.25;;
12758;SDS011;20944;47.048;15.390;2023-05-07T09:42:48;1.38;;;1.35;;
12758;SDS011;20944;47.048;15.390;2023-05-07T09:45:21;2.38;;;1.90;;
12758;SDS011;20944;47.048;15.390;2023-05-07T09:47:50;1.63;;;1.52;;
12758;SDS011;20944;47.048;15.390;2023-05-07T09:50:25;1.40;;;1.30;;
12758;SDS011;20944;47.048;15.390;2023-05-07T09:52:56;1.58;;;1.48;;
12758;SDS011;20944;47.048;15.390;2023-05-07T09:55:25;2.35;;;1.50;;
12758;SDS011;20944;47.048;15.390;2023-05-07T09:57:54;1.35;;;1.25;;
12758;SDS011;20944;47.048;15.390;2023-05-07T10:00:23;1.35;;;1.25;;
12758;SDS011;20944;47.048;15.390;2023-05-07T10:02:53;1.75;;;1.65;;
12758;SDS011;20944;47.048;15.390;2023-05-07T10:05:25;2.92;;;1.48;;
12758;SDS011;20944;47.048;15.390;2023-05-07T10:07:55;2.05;;;1.63;;
12758;SDS011;20944;47.048;15.390;2023-05-07T10:10:27;3.75;;;2.33;;
12758;SDS011;20944;47.048;15.390;2023-05-07T10:12:56;1.50;;;1.40;;
12758;SDS011;20944;47.048;15.390;2023-05-07T10:15:25;1.73;;;1.63;;
12758;SDS011;20944;47.048;15.390;2023-05-07T10:17:54;1.73;;;1.63;;
12758;SDS011;20944;47.048;15.390;2023-05-07T10:20:23;1.85;;;1.13;;
12758;SDS011;20944;47.048;15.390;2023-05-07T10:22:53;1.75;;;1.42;;
12758;SDS011;20944;47.048;15.390;2023-05-07T10:25:28;1.48;;;1.42;;
12758;SDS011;20944;47.048;15.390;2023-05-07T10:27:59;1.75;;;1.40;;
12758;SDS011;20944;47.048;15.390;2023-05-07T10:30:35;2.50;;;1.80;;
12758;SDS011;20944;47.048;15.390;2023-05-07T10:33:09;1.67;;;1.58;;
12758;SDS011;20944;47.048;15.390;2023-05-07T10:35:39;1.40;;;1.30;;
12758;SDS011;20944;47.048;15.390;2023-05-07T10:38:11;1.48;;;1.48;;
12758;SDS011;20944;47.048;15.390;2023-05-07T10:40:40;1.23;;;1.13;;
12758;SDS011;20944;47.048;15.390;2023-05-07T10:43:08;2.70;;;2.55;;
12758;SDS011;20944;47.048;15.390;2023-05-07T10:45:37;1.30;;;1.20;;
12758;SDS011;20944;47.048;15.390;2023-05-07T10:48:05;1.02;;;1.02;;
12758;SDS011;20944;47.048;15.390;2023-05-07T10:50:54;1.98;;;1.88;;
12758;SDS011;20944;47.048;15.390;2023-05-07T10:53:48;2.67;;;1.60;;
12758;SDS011;20944;47.048;15.390;2023-05-07T10:56:25;2.67;;;1.90;;
12758;SDS011;20944;47.048;15.390;2023-05-07T11:02:00;1.63;;;1.48;;
12758;SDS011;20944;47.048;15.390;2023-05-07T11:04:31;1.10;;;1.10;;
12758;SDS011;20944;47.048;15.390;2023-05-07T11:10:00;1.45;;;1.35;;
12758;SDS011;20944;47.048;15.390;2023-05-07T11:15:33;2.25;;;1.40;;
12758;SDS011;20944;47.048;15.390;2023-05-07T11:18:03;1.42;;;1.33;;
12758;SDS011;20944;47.048;15.390;2023-05-07T11:20:47;1.50;;;1.40;;
12758;SDS011;20944;47.048;15.390;2023-05-07T11:26:20;0.90;;;0.90;;
12758;SDS011;20944;47.048;15.390;2023-05-07T11:28:49;1.23;;;1.17;;
12758;SDS011;20944;47.048;15.390;2023-05-07T11:31:22;1.13;;;1.10;;
12758;SDS011;20944;47.048;15.390;2023-05-07T11:33:53;1.13;;;1.13;;
12758;SDS011;20944;47.048;15.390;2023-05-07T11:36:24;1.20;;;1.20;;
12758;SDS011;20944;47.048;15.390;2023-05-07T11:38:53;1.40;;;1.30;;
12758;SDS011;20944;47.048;15.390;2023-05-07T11:41:32;1.48;;;1.38;;
12758;SDS011;20944;47.048;15.390;2023-05-07T11:44:01;1.35;;;1.25;;
12758;SDS011;20944;47.048;15.390;2023-05-07T11:46:29;1.10;;;1.10;;
12758;SDS011;20944;47.048;15.390;2023-05-07T11:48:58;1.45;;;1.30;;
12758;SDS011;20944;47.048;15.390;2023-05-07T11:51:28;1.00;;;1.00;;
12758;SDS011;20944;47.048;15.390;2023-05-07T11:53:56;1.27;;;1.17;;
12758;SDS011;20944;47.048;15.390;2023-05-07T11:56:26;1.35;;;1.25;;
12758;SDS011;20944;47.048;15.390;2023-05-07T11:58:54;2.40;;;1.17;;
12758;SDS011;20944;47.048;15.390;2023-05-07T12:01:22;1.08;;;1.08;;
12758;SDS011;20944;47.048;15.390;2023-05-07T12:03:50;1.00;;;1.00;;
12758;SDS011;20944;47.048;15.390;2023-05-07T12:06:18;1.30;;;1.20;;
12758;SDS011;20944;47.048;15.390;2023-05-07T12:08:47;4.28;;;1.10;;
12758;SDS011;20944;47.048;15.390;2023-05-07T12:11:15;1.20;;;1.20;;
12758;SDS011;20944;47.048;15.390;2023-05-07T12:13:46;1.40;;;1.30;;
12758;SDS011;20944;47.048;15.390;2023-05-07T12:16:14;1.20;;;1.20;;
12758;SDS011;20944;47.048;15.390;2023-05-07T12:18:43;1.00;;;1.00;;
12758;SDS011;20944;47.048;15.390;2023-05-07T12:21:12;1.20;;;1.20;;
12758;SDS011;20944;47.048;15.390;2023-05-07T12:23:41;1.30;;;1.20;;
12758;SDS011;20944;47.048;15.390;2023-05-07T12:26:09;1.05;;;1.05;;
12758;SDS011;20944;47.048;15.390;2023-05-07T12:28:38;2.95;;;0.95;;
12758;SDS011;20944;47.048;15.390;2023-05-07T12:31:07;1.65;;;1.35;;
12758;SDS011;20944;47.048;15.390;2023-05-07T12:33:36;0.90;;;0.90;;
12758;SDS011;20944;47.048;15.390;2023-05-07T12:36:05;1.23;;;1.00;;
12758;SDS011;20944;47.048;15.390;2023-05-07T12:38:35;0.90;;;0.90;;
12758;SDS011;20944;47.048;15.390;2023-05-07T12:41:05;1.33;;;1.20;;
12758;SDS011;20944;47.048;15.390;2023-05-07T12:43:34;1.10;;;1.10;;
12758;SDS011;20944;47.048;15.390;2023-05-07T12:46:03;0.98;;;0.98;;
12758;SDS011;20944;47.048;15.390;2023-05-07T12:48:35;1.30;;;1.20;;
12758;SDS011;20944;47.048;15.390;2023-05-07T12:51:04;1.23;;;1.13;;
12758;SDS011;20944;47.048;15.390;2023-05-07T12:53:34;2.58;;;1.35;;
12758;SDS011;20944;47.048;15.390;2023-05-07T12:56:08;1.67;;;1.15;;
12758;SDS011;20944;47.048;15.390;2023-05-07T12:58:37;1.40;;;1.30;;
12758;SDS011;20944;47.048;15.390;2023-05-07T13:01:05;1.25;;;1.15;;
12758;SDS011;20944;47.048;15.390;2023-05-07T13:03:38;1.30;;;1.23;;
12758;SDS011;20944;47.048;15.390;2023-05-07T13:06:06;1.10;;;1.10;;
12758;SDS011;20944;47.048;15.390;2023-05-07T13:08:39;1.00;;;1.00;;
12758;SDS011;20944;47.048;15.390;2023-05-07T13:11:09;1.30;;;1.20;;
12758;SDS011;20944;47.048;15.390;2023-05-07T13:13:39;1.35;;;1.15;;
12758;SDS011;20944;47.048;15.390;2023-05-07T13:16:09;1.95;;;1.10;;
12758;SDS011;20944;47.048;15.390;2023-05-07T13:18:40;1.17;;;1.00;;
12758;SDS011;20944;47.048;15.390;2023-05-07T13:21:10;0.70;;;0.40;;
12758;SDS011;20944;47.048;15.390;2023-05-07T13:23:39;0.55;;;0.30;;
12758;SDS011;20944;47.048;15.390;2023-05-07T13:26:08;0.25;;;0.20;;
12758;SDS011;20944;47.048;15.390;2023-05-07T13:28:51;0.20;;;0.20;;
12758;SDS011;20944;47.048;15.390;2023-05-07T13:31:19;0.80;;;0.20;;
12758;SDS011;20944;47.048;15.390;2023-05-07T13:33:50;0.32;;;0.32;;
12758;SDS011;20944;47.048;15.390;2023-05-07T13:36:19;0.98;;;0.50;;
12758;SDS011;20944;47.048;15.390;2023-05-07T13:38:47;0.30;;;0.30;;
12758;SDS011;20944;47.048;15.390;2023-05-07T13:41:15;0.28;;;0.28;;
12758;SDS011;20944;47.048;15.390;2023-05-07T13:43:43;0.20;;;0.20;;
12758;SDS011;20944;47.048;15.390;2023-05-07T13:46:12;0.20;;;0.20;;
12758;SDS011;20944;47.048;15.390;2023-05-07T13:48:40;0.30;;;0.30;;
12758;SDS011;20944;47.048;15.390;2023-05-07T13:51:09;0.30;;;0.30;;
12758;SDS011;20944;47.048;15.390;2023-05-07T13:53:38;0.40;;;0.40;;
12758;SDS011;20944;47.048;15.390;2023-05-07T13:56:06;0.60;;;0.50;;
12758;SDS011;20944;47.048;15.390;2023-05-07T13:58:34;0.73;;;0.55;;
12758;SDS011;20944;47.048;15.390;2023-05-07T14:01:10;1.10;;;0.73;;
12758;SDS011;20944;47.048;15.390;2023-05-07T14:03:38;1.50;;;0.80;;
12758;SDS011;20944;47.048;15.390;2023-05-07T14:06:07;0.90;;;0.90;;
12758;SDS011;20944;47.048;15.390;2023-05-07T14:08:36;1.52;;;0.90;;
12758;SDS011;20944;47.048;15.390;2023-05-07T14:11:05;1.42;;;1.33;;
12758;SDS011;20944;47.048;15.390;2023-05-07T14:13:33;2.20;;;2.00;;
12758;SDS011;20944;47.048;15.390;2023-05-07T14:16:03;2.53;;;2.33;;
12758;SDS011;20944;47.048;15.390;2023-05-07T14:18:34;2.33;;;2.10;;
12758;SDS011;20944;47.048;15.390;2023-05-07T14:21:04;6.18;;;2.55;;
12758;SDS011;20944;47.048;15.390;2023-05-07T14:23:33;3.38;;;2.90;;
12758;SDS011;20944;47.048;15.390;2023-05-07T14:26:03;4.75;;;3.40;;
12758;SDS011;20944;47.048;15.390;2023-05-07T14:28:32;4.20;;;3.15;;
12758;SDS011;20944;47.048;15.390;2023-05-07T14:31:00;4.38;;;2.78;;
12758;SDS011;20944;47.048;15.390;2023-05-07T14:33:28;5.57;;;3.60;;
12758;SDS011;20944;47.048;15.390;2023-05-07T14:35:58;3.53;;;3.13;;
12758;SDS011;20944;47.048;15.390;2023-05-07T14:38:29;4.72;;;3.28;;
12758;SDS011;20944;47.048;15.390;2023-05-07T14:40:59;3.67;;;2.80;;
12758;SDS011;20944;47.048;15.390;2023-05-07T14:43:29;3.75;;;3.28;;
12758;SDS011;20944;47.048;15.390;2023-05-07T14:45:58;5.25;;;3.88;;
12758;SDS011;20944;47.048;15.390;2023-05-07T14:48:26;4.70;;;3.67;;
12758;SDS011;20944;47.048;15.390;2023-05-07T14:50:54;3.58;;;3.22;;
12758;SDS011;20944;47.048;15.390;2023-05-07T14:53:23;6.03;;;3.88;;
12758;SDS011;20944;47.048;15.390;2023-05-07T14:55:52;3.40;;;2.83;;
12758;SDS011;20944;47.048;15.390;2023-05-07T14:58:21;3.17;;;2.88;;